Time;durP1;ratioP1;P1;durP2;ratioP2;P2;SDS_P1;SDS_P2;PMS_P1;PMS_P2;Temp;Humidity;BMP_temperature;BMP_pressure;BME280_temperature;BME280_humidity;BME280_pressure;Samples;Min_cycle;Max_cycle;Signal;HPM_P1;HPM_P2
2022/08/05 00:00:03;;;;;;;4.95;1.95;;;28.20;99.90;;;;;;4127922;28;20096;-70
2022/08/05 00:02:13;;;;;;;6.28;2.10;;;28.20;99.90;;;;;;4125748;28;20132;-71
2022/08/05 00:04:20;;;;;;;4.93;2.17;;;28.30;99.90;;;;;;4130036;28;20109;-71
2022/08/05 00:06:28;;;;;;;4.00;2.33;;;28.30;99.90;;;;;;4122840;28;20169;-70
2022/08/05 00:08:38;;;;;;;5.22;1.95;;;28.30;99.90;;;;;;4132253;28;20057;-71
2022/08/05 00:10:42;;;;;;;6.05;2.55;;;28.30;99.90;;;;;;4134989;28;20065;-75
2022/08/05 00:12:50;;;;;;;4.53;1.80;;;28.40;99.90;;;;;;4129673;28;20050;-69
2022/08/05 00:14:59;;;;;;;5.35;2.30;;;28.40;99.90;;;;;;4132552;28;20048;-70
2022/08/05 00:17:26;;;;;;;6.45;2.20;;;28.40;99.90;;;;;;4103815;28;20496;-70
2022/08/05 00:19:32;;;;;;;4.85;1.92;;;28.50;99.90;;;;;;4095819;28;20092;-71
2022/08/05 00:21:56;;;;;;;7.47;1.90;;;28.50;99.90;;;;;;4101103;28;20047;-70
2022/08/05 00:24:04;;;;;;;11.57;2.20;;;28.50;99.90;;;;;;4102414;28;20086;-70
2022/08/05 00:26:21;;;;;;;2.90;1.55;;;28.50;99.90;;;;;;4096799;28;20997;-71
2022/08/05 00:28:25;;;;;;;5.85;2.30;;;28.60;99.90;;;;;;4106813;28;20055;-69
2022/08/05 00:30:35;;;;;;;2.80;1.50;;;28.60;99.90;;;;;;4088093;29;20051;-69
2022/08/05 00:32:45;;;;;;;8.07;1.88;;;28.50;99.90;;;;;;4096025;28;20047;-70
2022/08/05 00:34:50;;;;;;;4.95;2.20;;;28.60;99.90;;;;;;4091605;28;20057;-70
2022/08/05 00:37:09;;;;;;;6.00;1.67;;;28.60;99.90;;;;;;4091124;29;20047;-70
2022/08/05 00:39:18;;;;;;;5.50;2.47;;;28.60;99.90;;;;;;4093981;28;20050;-70
2022/08/05 00:41:31;;;;;;;8.57;2.50;;;28.60;99.90;;;;;;4092999;28;20828;-71
2022/08/05 00:43:54;;;;;;;6.30;2.10;;;28.70;99.90;;;;;;4095584;28;20175;-70
2022/08/05 00:46:01;;;;;;;4.55;1.63;;;28.80;99.90;;;;;;4076863;29;20207;-70
2022/08/05 00:48:07;;;;;;;5.88;2.20;;;28.70;99.90;;;;;;4098769;28;20152;-71
2022/08/05 00:50:14;;;;;;;4.47;2.40;;;28.70;99.90;;;;;;4093645;28;20058;-71
2022/08/05 00:52:21;;;;;;;6.60;3.20;;;28.80;99.90;;;;;;4077355;29;20055;-71
2022/08/05 00:54:31;;;;;;;4.32;2.33;;;28.80;99.90;;;;;;4097965;28;20046;-71
2022/08/05 00:56:37;;;;;;;4.57;2.03;;;28.80;99.90;;;;;;4127194;28;20863;-74
2022/08/05 00:58:55;;;;;;;4.93;1.63;;;28.80;99.90;;;;;;4130301;28;20392;-70
2022/08/05 01:01:02;;;;;;;3.70;1.58;;;28.70;99.90;;;;;;4137674;28;20069;-70
2022/08/05 01:03:12;;;;;;;2.45;1.40;;;28.70;99.90;;;;;;4143102;28;20049;-70
2022/08/05 01:05:27;;;;;;;3.88;1.75;;;28.80;99.90;;;;;;4126481;28;20054;-70
2022/08/05 01:07:34;;;;;;;5.50;1.45;;;28.80;99.90;;;;;;4126058;28;20046;-70
2022/08/05 01:10:01;;;;;;;6.60;1.70;;;28.90;99.90;;;;;;4109533;28;20120;-69
2022/08/05 01:12:13;;;;;;;2.63;1.52;;;28.90;99.90;;;;;;4107305;28;20075;-70
2022/08/05 01:14:36;;;;;;;3.53;1.30;;;28.90;99.90;;;;;;4102392;28;20043;-71
2022/08/05 01:17:03;;;;;;;3.10;1.55;;;28.90;99.90;;;;;;4097738;28;20629;-70
2022/08/05 01:19:31;;;;;;;2.90;1.30;;;29.00;99.90;;;;;;4101702;28;20509;-70
2022/08/05 01:22:28;;;;;;;3.28;1.40;;;29.00;99.90;;;;;;4105610;28;20082;-69
2022/08/05 01:25:08;;;;;;;2.75;1.33;;;29.10;99.90;;;;;;4094007;28;20155;-68
2022/08/05 01:27:41;;;;;;;9.23;3.13;;;29.00;99.90;;;;;;4105424;28;20097;-70
2022/08/05 01:30:02;;;;;;;7.15;1.98;;;29.00;99.90;;;;;;4109431;28;20078;-71
2022/08/05 01:32:09;;;;;;;4.35;1.38;;;29.00;99.90;;;;;;4110699;28;20057;-72
2022/08/05 01:34:36;;;;;;;5.43;1.60;;;29.10;99.90;;;;;;4112769;28;20482;-70
2022/08/05 01:36:49;;;;;;;6.03;1.50;;;29.10;99.90;;;;;;4107705;28;20057;-70
2022/08/05 01:38:54;;;;;;;3.90;1.70;;;29.10;99.90;;;;;;4110311;28;20046;-70
2022/08/05 01:41:02;;;;;;;5.65;2.10;;;29.20;99.90;;;;;;4095118;29;20130;-70
2022/08/05 01:43:11;;;;;;;3.05;1.60;;;29.20;99.90;;;;;;4106336;28;20037;-70
2022/08/05 01:45:33;;;;;;;4.45;1.35;;;29.20;99.90;;;;;;4104589;28;20082;-70
2022/08/05 01:47:48;;;;;;;5.32;1.33;;;29.40;99.90;;;;;;4115177;28;20421;-70
2022/08/05 01:49:59;;;;;;;3.92;1.20;;;29.30;99.90;;;;;;4132445;28;20050;-71
2022/08/05 01:52:08;;;;;;;4.47;1.30;;;29.30;99.90;;;;;;4138883;28;20042;-72
2022/08/05 01:54:20;;;;;;;4.82;1.88;;;29.40;99.90;;;;;;4126066;28;20039;-70
2022/08/05 01:56:29;;;;;;;6.80;1.50;;;29.50;99.90;;;;;;4131764;28;20038;-70
2022/08/05 01:58:54;;;;;;;2.88;1.20;;;29.60;99.90;;;;;;4144633;28;20057;-71
2022/08/05 02:01:01;;;;;;;5.75;1.20;;;29.70;99.90;;;;;;4134526;28;20121;-70
2022/08/05 02:03:18;;;;;;;5.78;1.10;;;29.70;99.90;;;;;;4132191;28;20057;-70
2022/08/05 02:05:36;;;;;;;2.63;1.20;;;29.60;99.90;;;;;;4134343;28;20042;-70
2022/08/05 02:07:47;;;;;;;5.25;2.10;;;29.60;99.90;;;;;;4129915;28;20046;-70
2022/08/05 02:10:05;;;;;;;17.90;5.55;;;29.70;99.90;;;;;;4137296;28;20042;-70
2022/08/05 02:12:40;;;;;;;12.73;4.88;;;29.80;99.90;;;;;;4135399;28;20042;-70
2022/08/05 02:15:07;;;;;;;7.53;2.50;;;29.70;99.90;;;;;;4130948;28;20054;-71
2022/08/05 02:17:23;;;;;;;4.18;2.50;;;29.70;99.90;;;;;;4125409;28;20081;-69
2022/08/05 02:19:52;;;;;;;7.55;2.60;;;29.80;99.90;;;;;;4128857;28;20425;-69
2022/08/05 02:22:25;;;;;;;3.97;2.30;;;29.80;99.90;;;;;;4128313;28;20050;-69
2022/08/05 02:24:36;;;;;;;3.22;1.65;;;29.80;99.90;;;;;;4130699;28;20050;-68
2022/08/05 02:26:47;;;;;;;3.20;1.00;;;29.80;99.90;;;;;;4141240;28;20073;-69
2022/08/05 02:28:57;;;;;;;2.58;0.90;;;29.90;99.90;;;;;;4129598;28;20050;-68
2022/08/05 02:31:16;;;;;;;3.13;1.10;;;29.90;99.90;;;;;;4129031;28;20050;-69
2022/08/05 02:33:24;;;;;;;3.90;1.00;;;29.90;99.90;;;;;;4130240;28;20137;-69
2022/08/05 02:35:41;;;;;;;2.40;1.10;;;29.90;99.80;;;;;;4130233;28;20150;-69
2022/08/05 02:38:03;;;;;;;2.33;1.00;;;30.00;99.90;;;;;;4129563;28;20065;-69
2022/08/05 02:40:12;;;;;;;2.22;0.90;;;30.10;99.90;;;;;;4130803;28;20054;-70
2022/08/05 02:42:19;;;;;;;2.20;1.15;;;30.20;99.90;;;;;;4113355;28;20047;-69
2022/08/05 02:44:31;;;;;;;2.45;1.05;;;30.30;99.90;;;;;;4113928;28;20383;-69
2022/08/05 02:46:38;;;;;;;2.83;1.08;;;30.30;99.60;;;;;;4112036;28;20113;-69
2022/08/05 02:49:02;;;;;;;3.03;0.90;;;30.40;99.80;;;;;;4126067;28;20418;-70
2022/08/05 02:51:13;;;;;;;;;;;30.40;99.50;;;;;;4129637;28;20101;-71
2022/08/05 02:53:19;;;;;;;3.20;1.25;;;30.50;99.40;;;;;;4129165;28;19922;-70
2022/08/05 02:55:26;;;;;;;2.20;1.17;;;30.50;99.60;;;;;;4132510;28;20528;-70
2022/08/05 02:57:52;;;;;;;3.15;1.05;;;30.50;99.40;;;;;;4128541;28;20101;-72
2022/08/05 03:00:15;;;;;;;4.75;1.08;;;30.50;99.50;;;;;;4101879;28;20058;-71
2022/08/05 03:02:25;;;;;;;3.05;1.30;;;30.60;99.40;;;;;;4094930;28;20075;-71
2022/08/05 03:04:32;;;;;;;2.88;1.05;;;30.60;99.50;;;;;;4110647;28;20082;-71
2022/08/05 03:06:37;;;;;;;1.50;0.93;;;30.70;99.10;;;;;;4110919;28;20528;-71
2022/08/05 03:09:03;;;;;;;2.78;1.13;;;30.60;98.70;;;;;;4112003;28;20880;-71
2022/08/05 03:11:23;;;;;;;3.60;1.10;;;30.50;99.10;;;;;;4109664;28;20165;-71
2022/08/05 03:13:48;;;;;;;3.38;1.10;;;30.60;99.00;;;;;;4111359;28;20212;-70
2022/08/05 03:16:07;;;;;;;3.15;0.80;;;30.60;99.10;;;;;;4110739;28;20094;-71
2022/08/05 03:18:19;;;;;;;1.40;0.82;;;30.70;98.70;;;;;;4112215;28;20061;-71
2022/08/05 03:20:33;;;;;;;3.08;1.25;;;30.60;98.60;;;;;;4111324;28;20402;-71
2022/08/05 03:22:40;;;;;;;4.90;1.00;;;30.70;98.60;;;;;;4096470;28;20051;-71
2022/08/05 03:24:53;;;;;;;2.50;1.05;;;30.80;98.90;;;;;;4112762;28;20042;-71
2022/08/05 03:27:05;;;;;;;2.25;0.82;;;30.80;98.80;;;;;;4095676;28;20051;-71
2022/08/05 03:29:11;;;;;;;3.08;1.00;;;30.90;98.70;;;;;;4111866;28;20476;-72
2022/08/05 03:31:21;;;;;;;3.60;1.20;;;30.90;98.70;;;;;;4129706;28;20795;-69
2022/08/05 03:33:45;;;;;;;4.20;0.88;;;30.90;99.00;;;;;;4129698;28;20165;-69
2022/08/05 03:35:57;;;;;;;2.53;1.10;;;31.00;98.80;;;;;;4128389;28;20122;-70
2022/08/05 03:38:11;;;;;;;3.88;0.90;;;31.00;98.80;;;;;;4129740;28;20141;-70
2022/08/05 03:40:17;;;;;;;1.70;0.90;;;30.90;98.50;;;;;;4129380;28;20053;-71
2022/08/05 03:42:36;;;;;;;4.15;1.05;;;30.90;98.10;;;;;;4129383;28;20061;-68
2022/08/05 03:44:54;;;;;;;2.47;1.15;;;30.90;98.30;;;;;;4130285;28;20196;-70
2022/08/05 03:46:59;;;;;;;3.15;0.80;;;30.80;98.30;;;;;;4128993;28;20056;-70
2022/08/05 03:49:09;;;;;;;4.40;0.95;;;30.80;98.60;;;;;;4127967;28;20043;-71
2022/08/05 03:51:22;;;;;;;4.15;1.15;;;30.80;98.40;;;;;;4093027;29;20051;-68
2022/08/05 03:54:09;;;;;;;2.40;0.90;;;30.80;98.30;;;;;;4130103;28;20096;-71
2022/08/05 03:56:40;;;;;;;2.50;1.00;;;30.90;98.10;;;;;;4139635;28;20056;-68
2022/08/05 03:58:48;;;;;;;2.83;0.93;;;31.00;98.20;;;;;;4175217;28;20158;-68
2022/08/05 04:00:53;;;;;;;4.95;1.33;;;31.00;98.30;;;;;;4144912;28;20049;-68
2022/08/05 04:03:01;;;;;;;2.03;0.90;;;31.00;98.20;;;;;;4132983;28;20578;-69
2022/08/05 04:05:08;;;;;;;3.00;1.05;;;31.00;98.00;;;;;;4130263;28;20050;-68
2022/08/05 04:07:12;;;;;;;4.43;0.90;;;31.10;98.00;;;;;;4128952;28;20050;-68
2022/08/05 04:09:21;;;;;;;2.17;1.23;;;31.10;98.00;;;;;;4128821;28;20050;-68
2022/08/05 04:11:29;;;;;;;2.55;0.85;;;31.10;97.70;;;;;;4129155;28;20042;-68
2022/08/05 04:13:53;;;;;;;2.67;0.80;;;31.20;97.40;;;;;;4130298;28;20085;-68
2022/08/05 04:16:00;;;;;;;2.50;1.00;;;31.20;96.90;;;;;;4128122;28;20104;-68
2022/08/05 04:18:07;;;;;;;3.75;0.85;;;31.30;97.00;;;;;;4129996;28;20054;-67
2022/08/05 04:20:23;;;;;;;2.42;0.80;;;31.30;97.00;;;;;;4129002;28;20068;-69
2022/08/05 04:22:29;;;;;;;3.63;1.00;;;31.30;97.10;;;;;;4129367;28;20042;-69
2022/08/05 04:24:41;;;;;;;3.53;0.90;;;31.40;96.90;;;;;;4129337;28;20054;-69
2022/08/05 04:26:47;;;;;;;6.70;0.80;;;31.50;96.80;;;;;;4128495;28;20069;-69
2022/08/05 04:28:53;;;;;;;3.17;0.85;;;31.60;96.80;;;;;;4129220;28;20587;-71
2022/08/05 04:31:01;;;;;;;3.03;0.80;;;31.40;95.80;;;;;;4110605;28;20138;-71
2022/08/05 04:33:13;;;;;;;3.05;0.70;;;31.60;95.90;;;;;;4128762;28;20047;-70
2022/08/05 04:35:19;;;;;;;7.45;1.00;;;31.70;96.10;;;;;;4128902;28;20144;-71
2022/08/05 04:37:26;;;;;;;1.58;0.68;;;31.70;96.00;;;;;;4128521;28;20554;-72
2022/08/05 04:39:50;;;;;;;3.08;0.60;;;31.70;95.80;;;;;;4128995;28;20065;-71
2022/08/05 04:41:59;;;;;;;4.50;0.82;;;31.70;95.60;;;;;;4128617;28;20082;-71
2022/08/05 04:44:06;;;;;;;1.95;0.70;;;31.80;95.90;;;;;;4130255;28;20054;-70
2022/08/05 04:46:12;;;;;;;2.40;0.60;;;31.70;95.80;;;;;;4128375;28;20193;-70
2022/08/05 04:48:32;;;;;;;1.70;0.57;;;31.70;96.10;;;;;;4129312;28;20050;-69
2022/08/05 04:50:44;;;;;;;3.40;0.80;;;31.70;95.70;;;;;;4129156;28;20081;-71
2022/08/05 04:53:09;;;;;;;2.80;0.60;;;31.70;95.30;;;;;;4129951;28;20177;-71
2022/08/05 04:55:15;;;;;;;1.98;0.70;;;31.80;95.70;;;;;;4139159;28;20096;-71
2022/08/05 04:57:45;;;;;;;3.00;0.75;;;31.80;95.80;;;;;;4104780;28;20097;-69
2022/08/05 04:59:53;;;;;;;2.63;1.13;;;31.80;95.40;;;;;;4126351;28;20078;-71
2022/08/05 05:02:00;;;;;;;5.18;0.90;;;31.80;95.20;;;;;;4134001;28;20046;-70
2022/08/05 05:04:27;;;;;;;1.90;0.70;;;31.80;95.30;;;;;;4141717;28;20165;-70
2022/08/05 05:06:35;;;;;;;3.53;1.00;;;31.80;95.20;;;;;;4126041;28;20125;-70
2022/08/05 05:08:48;;;;;;;4.78;0.88;;;31.80;95.40;;;;;;4126488;28;20054;-70
2022/08/05 05:10:59;;;;;;;3.90;0.90;;;31.70;95.40;;;;;;4138669;28;20459;-69
2022/08/05 05:13:04;;;;;;;2.50;0.80;;;31.70;95.40;;;;;;4143370;28;20133;-70
2022/08/05 05:15:12;;;;;;;2.05;0.98;;;31.70;95.30;;;;;;4138956;28;20070;-69
2022/08/05 05:17:43;;;;;;;2.72;0.90;;;31.80;95.10;;;;;;4102897;28;20066;-70
2022/08/05 05:19:59;;;;;;;4.28;1.02;;;31.70;94.90;;;;;;4093728;28;20222;-72
2022/08/05 05:22:09;;;;;;;4.53;0.90;;;31.80;95.20;;;;;;4089252;28;20477;-71
2022/08/05 05:24:28;;;;;;;2.33;0.80;;;31.80;95.20;;;;;;4111769;28;20051;-71
2022/08/05 05:26:54;;;;;;;3.75;0.80;;;31.80;95.10;;;;;;4100977;28;20069;-72
2022/08/05 05:29:00;;;;;;;2.45;0.80;;;31.60;94.20;;;;;;4126163;28;20074;-72
2022/08/05 05:31:17;;;;;;;3.42;0.88;;;31.50;94.50;;;;;;4125917;28;20563;-71
2022/08/05 05:33:23;;;;;;;1.70;0.75;;;31.50;94.40;;;;;;4110921;28;20813;-72
2022/08/05 05:35:32;;;;;;;4.10;0.93;;;31.70;94.80;;;;;;4109088;28;20047;-70
2022/08/05 05:37:55;;;;;;;3.40;0.70;;;31.80;94.50;;;;;;4094656;29;20043;-69
2022/08/05 05:40:05;;;;;;;4.10;0.80;;;31.70;94.20;;;;;;4081285;29;20032;-69
2022/08/05 05:42:12;;;;;;;2.60;0.80;;;31.80;94.80;;;;;;4100711;28;20055;-72
2022/08/05 05:44:16;;;;;;;4.18;1.00;;;31.80;94.50;;;;;;4097925;28;20058;-71
2022/08/05 05:46:39;;;;;;;2.05;0.93;;;31.70;94.10;;;;;;4079971;29;20062;-73
2022/08/05 05:48:47;;;;;;;1.83;0.70;;;31.70;93.50;;;;;;4094360;29;20059;-73
2022/08/05 05:50:55;;;;;;;2.75;0.90;;;31.60;93.80;;;;;;4110058;28;20084;-71
2022/08/05 05:53:00;;;;;;;2.28;0.90;;;31.70;94.00;;;;;;4110851;28;20042;-71
2022/08/05 05:55:26;;;;;;;2.33;0.98;;;31.80;94.40;;;;;;4119892;28;20536;-71
2022/08/05 05:57:52;;;;;;;2.80;0.90;;;31.90;94.70;;;;;;4108050;28;20054;-71
2022/08/05 06:00:06;;;;;;;2.30;0.65;;;32.00;94.50;;;;;;4109914;28;20084;-71
2022/08/05 06:02:18;;;;;;;2.28;0.68;;;32.00;93.50;;;;;;4139119;28;20038;-71
2022/08/05 06:04:39;;;;;;;3.58;0.73;;;32.00;93.80;;;;;;4143119;28;20108;-73
2022/08/05 06:06:44;;;;;;;1.58;0.50;;;32.00;93.70;;;;;;4120959;28;20102;-71
2022/08/05 06:08:54;;;;;;;3.35;1.00;;;32.00;94.00;;;;;;4126296;28;20054;-72
2022/08/05 06:11:00;;;;;;;4.43;0.80;;;31.90;93.70;;;;;;4139864;28;20544;-72
2022/08/05 06:13:08;;;;;;;1.55;0.80;;;31.80;93.60;;;;;;4129280;28;20051;-72
2022/08/05 06:15:15;;;;;;;3.13;0.75;;;31.70;93.90;;;;;;4132007;28;20125;-72
2022/08/05 06:17:26;;;;;;;2.78;1.00;;;31.80;93.60;;;;;;4101680;28;20055;-70
2022/08/05 06:19:52;;;;;;;2.10;0.68;;;31.80;94.00;;;;;;4128561;28;20058;-70
2022/08/05 06:22:04;;;;;;;2.30;0.85;;;31.90;94.40;;;;;;4127880;28;20093;-70
2022/08/05 06:24:11;;;;;;;3.30;0.98;;;31.90;94.40;;;;;;4135464;28;20084;-71
2022/08/05 06:26:17;;;;;;;3.65;0.70;;;32.00;94.50;;;;;;4128065;28;20050;-70
2022/08/05 06:28:28;;;;;;;3.72;0.80;;;32.10;94.70;;;;;;4145502;28;20793;-71
2022/08/05 06:30:35;;;;;;;2.75;0.70;;;32.20;94.60;;;;;;4128825;28;20054;-70
2022/08/05 06:32:39;;;;;;;2.40;1.05;;;32.10;94.10;;;;;;4123658;28;20053;-70
2022/08/05 06:34:49;;;;;;;5.13;1.00;;;32.10;94.10;;;;;;4120957;28;20039;-70
2022/08/05 06:36:59;;;;;;;4.18;1.00;;;32.10;94.10;;;;;;4129414;28;20135;-70
2022/08/05 06:39:04;;;;;;;6.97;1.10;;;32.20;94.50;;;;;;4130201;28;20078;-71
2022/08/05 06:41:11;;;;;;;3.75;1.10;;;32.20;94.20;;;;;;4128962;28;20048;-71
2022/08/05 06:43:18;;;;;;;2.67;1.02;;;32.20;94.00;;;;;;4129102;28;20054;-71
2022/08/05 06:45:43;;;;;;;3.80;1.15;;;32.30;94.20;;;;;;4129206;28;20173;-70
2022/08/05 06:48:10;;;;;;;2.72;1.17;;;32.30;94.20;;;;;;4128624;28;20137;-71
2022/08/05 06:50:36;;;;;;;4.32;1.10;;;32.10;94.00;;;;;;4090071;28;20048;-71
2022/08/05 06:52:42;;;;;;;3.38;1.08;;;32.10;93.90;;;;;;4085204;29;20560;-70
2022/08/05 06:55:03;;;;;;;4.32;0.95;;;32.00;93.30;;;;;;4089201;28;20039;-71
2022/08/05 06:57:10;;;;;;;5.20;0.80;;;31.90;93.10;;;;;;4087887;28;20047;-70
2022/08/05 06:59:35;;;;;;;2.95;1.17;;;31.90;93.40;;;;;;4085155;29;20055;-71
2022/08/05 07:01:46;;;;;;;2.65;0.80;;;32.00;93.30;;;;;;4086615;29;20586;-71
2022/08/05 07:03:55;;;;;;;3.53;0.85;;;31.90;93.70;;;;;;4056003;29;20036;-71
2022/08/05 07:06:03;;;;;;;3.22;1.23;;;32.00;94.10;;;;;;4080353;29;20052;-71
2022/08/05 07:08:17;;;;;;;2.38;1.02;;;31.80;94.80;;;;;;4080798;29;20047;-71
2022/08/05 07:10:27;;;;;;;4.38;1.40;;;31.80;94.40;;;;;;4064456;29;20120;-72
2022/08/05 07:17:34;;;;;;;6.15;1.23;;;31.90;94.60;;;;;;4073738;29;20056;-70
2022/08/05 07:20:00;;;;;;;6.43;2.10;;;31.80;94.60;;;;;;4056507;29;20041;-71
2022/08/05 07:22:25;;;;;;;5.82;1.83;;;31.90;94.30;;;;;;4048259;29;20064;-70
2022/08/05 07:24:32;;;;;;;11.90;9.80;;;31.90;94.40;;;;;;4019159;29;20116;-71
2022/08/05 07:26:48;;;;;;;10.93;8.25;;;32.00;94.20;;;;;;4047846;29;20076;-71
2022/08/05 07:28:53;;;;;;;9.60;6.57;;;32.00;94.00;;;;;;4083656;29;20061;-72
2022/08/05 07:31:02;;;;;;;19.65;17.05;;;31.90;94.10;;;;;;4095811;28;20146;-71
2022/08/05 07:33:13;;;;;;;12.55;9.70;;;31.80;94.00;;;;;;4096485;29;20055;-71
2022/08/05 07:35:19;;;;;;;5.28;2.90;;;31.90;94.00;;;;;;4107204;28;20568;-72
2022/08/05 07:37:44;;;;;;;4.40;2.63;;;31.80;94.10;;;;;;4118906;28;20187;-71
2022/08/05 07:39:51;;;;;;;5.47;3.28;;;31.90;93.90;;;;;;4125955;28;20069;-72
2022/08/05 07:42:16;;;;;;;4.97;2.75;;;32.00;93.90;;;;;;4127146;28;20109;-72
2022/08/05 07:44:36;;;;;;;5.32;2.38;;;32.10;93.90;;;;;;4128887;28;20072;-72
2022/08/05 07:46:43;;;;;;;5.25;3.47;;;32.20;93.90;;;;;;4115503;28;20525;-73
2022/08/05 07:48:52;;;;;;;4.70;1.70;;;32.20;94.20;;;;;;4120104;28;20054;-72
2022/08/05 07:51:07;;;;;;;4.07;1.30;;;32.20;94.00;;;;;;4129659;28;20443;-73
2022/08/05 07:53:35;;;;;;;3.42;1.20;;;32.30;94.10;;;;;;4129636;28;20097;-74
2022/08/05 07:55:53;;;;;;;6.97;1.20;;;32.50;93.80;;;;;;4128531;28;20069;-71
2022/08/05 07:58:19;;;;;;;4.10;1.13;;;32.70;93.70;;;;;;4079706;29;20056;-72
2022/08/05 08:00:45;;;;;;;3.28;1.08;;;32.60;93.60;;;;;;4084174;28;20051;-70
2022/08/05 08:02:51;;;;;;;2.60;0.93;;;32.60;93.20;;;;;;4062938;29;20056;-71
2022/08/05 08:05:17;;;;;;;2.95;1.20;;;32.60;93.20;;;;;;4049073;29;20048;-71
2022/08/05 08:07:24;;;;;;;3.38;1.23;;;32.70;93.20;;;;;;4055299;29;20052;-71
2022/08/05 08:09:31;;;;;;;3.72;1.52;;;32.70;92.90;;;;;;4063224;29;20111;-71
2022/08/05 08:11:40;;;;;;;3.83;0.95;;;32.80;93.10;;;;;;4062820;29;20591;-71
2022/08/05 08:14:03;;;;;;;4.13;1.50;;;32.80;92.80;;;;;;4061637;29;20043;-70
2022/08/05 08:16:10;;;;;;;2.60;1.08;;;32.90;92.90;;;;;;4063846;29;20048;-70
2022/08/05 08:18:34;;;;;;;3.45;1.10;;;33.00;93.00;;;;;;4062525;29;20056;-71
2022/08/05 08:20:40;;;;;;;2.38;1.17;;;33.00;92.90;;;;;;4060749;29;20072;-71
2022/08/05 08:23:06;;;;;;;7.55;1.35;;;33.00;92.80;;;;;;4062077;29;20040;-70
2022/08/05 08:25:33;;;;;;;2.30;1.10;;;33.00;92.80;;;;;;4062621;29;20075;-71
2022/08/05 08:28:00;;;;;;;3.85;1.45;;;33.00;93.10;;;;;;4051499;29;20519;-71
2022/08/05 08:30:05;;;;;;;3.08;1.10;;;32.90;93.40;;;;;;4070375;29;20060;-71
2022/08/05 08:32:35;;;;;;;3.35;1.10;;;32.90;93.40;;;;;;4063490;29;20127;-71
2022/08/05 08:34:46;;;;;;;4.30;1.17;;;32.80;93.30;;;;;;4063908;29;20499;-71
2022/08/05 08:36:50;;;;;;;4.55;1.40;;;32.80;93.40;;;;;;4063129;29;20056;-71
2022/08/05 08:39:07;;;;;;;3.80;1.30;;;32.70;93.30;;;;;;4062476;29;20520;-71
2022/08/05 08:41:19;;;;;;;4.75;1.30;;;32.70;93.60;;;;;;4078679;29;20653;-72
2022/08/05 08:43:29;;;;;;;4.43;1.48;;;32.60;93.70;;;;;;4080384;28;20486;-72
2022/08/05 08:45:56;;;;;;;4.75;1.10;;;32.50;94.00;;;;;;4063571;29;20071;-73
2022/08/05 08:48:04;;;;;;;4.35;1.35;;;32.60;94.00;;;;;;4067751;29;20438;-72
2022/08/05 08:50:29;;;;;;;2.67;1.13;;;32.50;94.20;;;;;;4063062;29;20462;-72
2022/08/05 08:52:59;;;;;;;5.88;1.25;;;32.50;94.40;;;;;;4005142;29;20131;-72
2022/08/05 08:55:12;;;;;;;2.47;0.90;;;32.50;94.40;;;;;;4017938;29;20054;-72
2022/08/05 08:57:22;;;;;;;5.28;1.48;;;32.50;94.60;;;;;;4016299;29;20049;-71
2022/08/05 08:59:44;;;;;;;3.80;1.30;;;32.60;94.90;;;;;;4017683;29;20113;-73
2022/08/05 09:01:53;;;;;;;3.38;1.45;;;32.60;94.90;;;;;;4016519;29;20053;-73
2022/08/05 09:04:03;;;;;;;8.65;1.42;;;32.60;94.90;;;;;;4026584;29;20058;-73
2022/08/05 09:06:13;;;;;;;4.30;1.08;;;32.60;94.80;;;;;;4062839;29;20119;-73
2022/08/05 09:08:25;;;;;;;2.50;1.23;;;32.60;95.00;;;;;;4063625;29;20546;-73
2022/08/05 09:10:33;;;;;;;4.18;1.55;;;32.60;94.90;;;;;;4074452;29;20789;-73
2022/08/05 09:12:42;;;;;;;4.45;1.48;;;32.50;94.90;;;;;;4063090;29;20052;-70
2022/08/05 09:14:53;;;;;;;4.13;1.70;;;32.50;95.20;;;;;;4087372;28;20055;-71
2022/08/05 09:17:11;;;;;;;6.45;1.60;;;32.50;95.40;;;;;;4091209;29;20055;-71
2022/08/05 09:19:38;;;;;;;4.07;1.60;;;32.40;95.60;;;;;;4061856;29;20116;-71
2022/08/05 09:22:03;;;;;;;6.13;2.42;;;32.30;95.80;;;;;;4062287;29;20134;-70
2022/08/05 09:24:27;;;;;;;5.07;2.50;;;32.30;95.60;;;;;;4062881;29;20056;-70
2022/08/05 09:26:35;;;;;;;6.97;2.60;;;32.30;95.40;;;;;;4063428;29;20613;-78
2022/08/05 09:28:42;;;;;;;4.55;1.98;;;32.30;95.30;;;;;;4051810;29;20056;-71
2022/08/05 09:30:57;;;;;;;3.72;1.52;;;32.30;95.40;;;;;;4072440;28;20055;-70
2022/08/05 09:33:24;;;;;;;4.60;1.10;;;32.30;95.30;;;;;;4059154;29;20064;-71
2022/08/05 09:35:40;;;;;;;4.20;1.40;;;32.30;95.30;;;;;;4069901;29;20075;-71
2022/08/05 09:37:53;;;;;;;5.10;1.75;;;32.30;95.70;;;;;;4065668;29;20048;-71
2022/08/05 09:40:30;;;;;;;4.55;1.60;;;32.20;95.80;;;;;;4078635;29;20487;-71
2022/08/05 09:42:40;;;;;;;3.78;1.40;;;32.30;95.80;;;;;;4078944;29;20583;-71
2022/08/05 09:44:51;;;;;;;5.78;2.13;;;32.30;95.70;;;;;;4079560;29;20216;-71
2022/08/05 09:47:20;;;;;;;4.07;1.42;;;32.40;95.90;;;;;;4079485;29;20829;-70
2022/08/05 09:49:27;;;;;;;4.05;1.48;;;32.20;96.10;;;;;;4081228;29;20495;-72
2022/08/05 09:51:51;;;;;;;3.58;1.30;;;32.10;96.10;;;;;;4078026;29;20059;-73
2022/08/05 09:53:58;;;;;;;4.00;1.42;;;32.20;96.30;;;;;;4067481;29;20050;-71
2022/08/05 09:56:04;;;;;;;6.50;1.40;;;32.10;96.30;;;;;;4049352;29;20053;-72
2022/08/05 09:58:15;;;;;;;5.25;1.20;;;32.20;96.30;;;;;;4095083;29;20055;-70
2022/08/05 10:00:24;;;;;;;3.67;1.63;;;32.20;95.90;;;;;;4065577;29;20048;-70
2022/08/05 10:02:54;;;;;;;13.07;1.85;;;32.20;96.20;;;;;;4095604;29;20534;-71
2022/08/05 10:05:12;;;;;;;8.90;1.60;;;32.10;96.30;;;;;;4103376;28;20073;-72
2022/08/05 10:07:19;;;;;;;7.93;1.08;;;32.20;96.30;;;;;;4097084;29;20051;-71
2022/08/05 10:09:54;;;;;;;3.95;1.13;;;32.10;96.40;;;;;;4119329;28;20058;-72
2022/08/05 10:12:18;;;;;;;7.85;1.35;;;32.10;96.50;;;;;;4166658;28;20054;-72
2022/08/05 10:14:36;;;;;;;3.40;1.30;;;32.10;96.50;;;;;;4138857;28;20047;-72
2022/08/05 10:16:47;;;;;;;5.03;1.30;;;32.10;96.40;;;;;;4136877;28;20044;-72
2022/08/05 10:18:57;;;;;;;3.67;1.08;;;32.00;96.40;;;;;;4137299;28;20060;-71
2022/08/05 10:21:06;;;;;;;6.57;1.27;;;32.00;96.20;;;;;;4138115;28;20050;-73
2022/08/05 10:23:21;;;;;;;4.60;1.38;;;32.00;96.10;;;;;;4141032;28;20436;-70
2022/08/05 10:25:46;;;;;;;4.80;1.38;;;32.00;96.20;;;;;;4143898;28;20049;-71
2022/08/05 10:27:54;;;;;;;5.47;1.25;;;31.90;96.40;;;;;;4141565;28;20050;-70
2022/08/05 10:30:18;;;;;;;5.43;1.60;;;31.80;96.60;;;;;;4129367;28;20678;-70
2022/08/05 10:32:42;;;;;;;3.78;1.00;;;31.80;96.80;;;;;;4128956;28;20049;-70
2022/08/05 10:35:05;;;;;;;3.70;1.20;;;31.80;96.70;;;;;;4133291;28;20089;-73
2022/08/05 10:37:13;;;;;;;3.92;1.30;;;31.70;96.60;;;;;;4130959;28;20493;-69
2022/08/05 10:39:20;;;;;;;2.38;1.00;;;31.70;96.70;;;;;;4131563;28;20045;-76
2022/08/05 10:42:01;;;;;;;2.33;1.10;;;31.40;97.10;;;;;;4129422;28;20073;-74
2022/08/05 10:44:09;;;;;;;3.20;1.10;;;31.50;97.00;;;;;;4157001;28;20053;-71
2022/08/05 10:46:16;;;;;;;5.03;1.20;;;31.60;96.90;;;;;;4130457;28;20752;-72
2022/08/05 10:48:31;;;;;;;4.95;1.25;;;31.60;96.90;;;;;;4130467;28;20052;-73
2022/08/05 10:51:21;;;;;;;3.17;1.20;;;31.60;97.00;;;;;;4130819;28;20046;-72
2022/08/05 10:53:43;;;;;;;4.32;1.33;;;31.50;97.10;;;;;;4131278;28;20390;-73
2022/08/05 10:56:20;;;;;;;4.00;1.75;;;31.40;97.40;;;;;;4131850;28;20615;-72
2022/08/05 10:58:28;;;;;;;3.60;1.20;;;31.40;97.40;;;;;;4129206;28;20058;-73
2022/08/05 11:00:53;;;;;;;;;;;31.40;97.10;;;;;;4111338;28;20895;-73
2022/08/05 11:03:10;;;;;;;6.45;1.48;;;31.40;97.20;;;;;;4147736;28;19992;-73
2022/08/05 11:05:28;;;;;;;2.78;1.08;;;31.40;97.30;;;;;;4143841;28;20120;-72
2022/08/05 11:07:54;;;;;;;6.15;2.10;;;31.30;97.50;;;;;;4131719;28;20404;-73
2022/08/05 11:10:22;;;;;;;5.40;1.98;;;31.10;97.50;;;;;;4134104;28;20054;-72
2022/08/05 11:12:51;;;;;;;4.18;1.60;;;31.20;97.50;;;;;;4150146;28;20056;-72
2022/08/05 11:15:29;;;;;;;4.03;2.00;;;31.20;97.40;;;;;;4130581;28;20054;-71
2022/08/05 11:18:08;;;;;;;5.90;2.35;;;31.20;97.70;;;;;;4131111;28;20114;-72
2022/08/05 11:20:37;;;;;;;5.65;2.25;;;31.10;98.00;;;;;;4131085;28;20128;-73
2022/08/05 11:22:47;;;;;;;5.75;2.00;;;31.10;98.30;;;;;;4134649;28;20125;-72
2022/08/05 11:25:24;;;;;;;7.68;1.88;;;31.00;98.50;;;;;;4137003;28;20049;-71
2022/08/05 11:27:51;;;;;;;4.80;2.10;;;31.10;98.50;;;;;;4124029;28;20054;-73
2022/08/05 11:30:05;;;;;;;5.57;2.10;;;31.00;98.60;;;;;;4123525;28;20413;-73
2022/08/05 11:32:26;;;;;;;6.47;2.78;;;31.00;98.90;;;;;;4112504;28;20189;-74
2022/08/05 11:34:39;;;;;;;6.10;2.30;;;31.00;99.00;;;;;;4117348;28;20047;-73
2022/08/05 11:36:56;;;;;;;4.43;2.00;;;31.00;99.10;;;;;;4116343;28;20523;-75
2022/08/05 11:39:01;;;;;;;4.05;1.88;;;30.90;99.10;;;;;;4086114;28;20126;-73
2022/08/05 11:41:27;;;;;;;5.32;1.60;;;30.90;98.90;;;;;;4083627;29;20051;-72
2022/08/05 11:44:21;;;;;;;3.38;1.50;;;30.90;98.90;;;;;;4115178;28;20050;-73
2022/08/05 11:46:50;;;;;;;3.35;1.17;;;30.80;98.90;;;;;;4115353;28;20058;-74
2022/08/05 11:49:17;;;;;;;9.88;2.25;;;30.90;99.00;;;;;;4107490;28;20101;-74